createdAt,value
2018-01-27T00:02:10.336Z,15.27
2018-01-27T00:04:39.220Z,15.73
2018-01-27T00:07:14.179Z,15.48
2018-01-27T00:09:42.314Z,16.02
2018-01-27T00:12:10.445Z,14.32
2018-01-27T00:14:38.565Z,14.50
2018-01-27T00:17:06.709Z,13.70
2018-01-27T00:19:34.859Z,15.30
2018-01-27T00:22:03.008Z,15.98
2018-01-27T00:24:31.145Z,14.25
2018-01-27T00:27:00.051Z,15.02
2018-01-27T00:29:28.185Z,13.85
2018-01-27T00:31:56.306Z,14.93
2018-01-27T00:34:24.421Z,13.95
2018-01-27T00:36:52.571Z,13.53
2018-01-27T00:39:20.701Z,14.13
2018-01-27T00:41:48.817Z,15.85
2018-01-27T00:44:17.726Z,15.82
2018-01-27T00:46:45.845Z,14.60
2018-01-27T00:49:13.987Z,13.50
2018-01-27T00:51:42.882Z,15.43
2018-01-27T00:54:11.770Z,14.75
2018-01-27T00:56:40.673Z,14.93
2018-01-27T00:59:09.573Z,13.95
2018-01-27T01:01:37.706Z,14.23
2018-01-27T01:04:05.854Z,14.23
2018-01-27T01:06:33.987Z,13.98
2018-01-27T01:09:02.128Z,14.50
2018-01-27T01:11:30.276Z,14.38
2018-01-27T01:13:59.185Z,14.75
2018-01-27T01:16:27.307Z,14.52
2018-01-27T01:18:55.430Z,15.10
2018-01-27T01:21:23.565Z,15.00
2018-01-27T01:23:51.699Z,15.05
2018-01-27T01:26:20.578Z,14.93
2018-01-27T01:28:49.486Z,13.60
2018-01-27T01:31:17.650Z,13.25
2018-01-27T01:33:46.555Z,15.02
2018-01-27T01:36:14.685Z,15.53
2018-01-27T01:38:43.108Z,13.30
2018-01-27T01:41:13.051Z,14.27
2018-01-27T01:43:46.902Z,13.45
2018-01-27T01:46:15.455Z,14.07
2018-01-27T01:48:43.556Z,13.57
2018-01-27T01:51:11.681Z,12.37
2018-01-27T01:53:39.798Z,11.75
2018-01-27T01:56:07.935Z,14.23
2018-01-27T01:58:36.062Z,12.73
2018-01-27T02:01:04.974Z,13.70
2018-01-27T02:03:33.106Z,14.77
2018-01-27T02:06:01.249Z,13.50
2018-01-27T02:08:29.391Z,14.25
2018-01-27T02:10:57.510Z,14.32
2018-01-27T02:13:25.650Z,12.80
2018-01-27T02:15:53.782Z,12.90
2018-01-27T02:18:22.691Z,13.38
2018-01-27T02:20:50.846Z,13.90
2018-01-27T02:23:18.989Z,13.80
2018-01-27T02:25:47.111Z,13.80
2018-01-27T02:28:15.230Z,12.65
2018-01-27T02:30:43.358Z,13.25
2018-01-27T02:33:11.494Z,13.73
2018-01-27T02:35:39.647Z,13.27
2018-01-27T02:40:42.212Z,12.05
2018-01-27T02:43:10.334Z,11.57
2018-01-27T02:45:38.469Z,13.23
2018-01-27T02:48:06.634Z,11.40
2018-01-27T02:50:34.792Z,11.33
2018-01-27T02:53:02.898Z,12.40
2018-01-27T02:55:31.022Z,12.27
2018-01-27T02:57:59.153Z,12.07
2018-01-27T03:00:27.334Z,11.70
2018-01-27T03:02:55.461Z,11.82
2018-01-27T03:05:23.590Z,12.70
2018-01-27T03:07:52.479Z,12.15
2018-01-27T03:10:21.374Z,12.23
2018-01-27T03:12:50.287Z,13.23
2018-01-27T03:15:18.417Z,13.35
2018-01-27T03:17:46.562Z,12.60
2018-01-27T03:20:14.687Z,11.70
2018-01-27T03:22:43.587Z,13.32
2018-01-27T03:25:11.731Z,10.38
2018-01-27T03:27:39.860Z,11.55
2018-01-27T03:30:07.987Z,11.25
2018-01-27T03:32:36.880Z,11.07
2018-01-27T03:35:05.790Z,10.30
2018-01-27T03:37:33.936Z,9.98
2018-01-27T03:40:02.055Z,12.05
2018-01-27T03:42:30.194Z,12.30
2018-01-27T03:44:59.074Z,12.60
2018-01-27T03:47:27.976Z,11.85
2018-01-27T03:49:56.101Z,11.47
2018-01-27T03:52:24.243Z,9.88
2018-01-27T03:54:52.353Z,12.35
2018-01-27T03:57:20.503Z,12.00
2018-01-27T03:59:48.661Z,12.30
2018-01-27T04:02:17.521Z,11.73
2018-01-27T04:04:46.419Z,10.73
2018-01-27T04:07:14.538Z,10.68
2018-01-27T04:09:42.677Z,11.80
2018-01-27T04:12:10.806Z,11.50
2018-01-27T04:14:39.722Z,12.10
2018-01-27T04:17:07.909Z,10.98
2018-01-27T04:19:36.039Z,11.30
2018-01-27T04:22:04.172Z,11.73
2018-01-27T04:24:32.293Z,13.18
2018-01-27T04:27:01.191Z,11.40
2018-01-27T04:29:30.078Z,12.35
2018-01-27T04:31:58.979Z,12.00
2018-01-27T04:34:27.101Z,11.48
2018-01-27T04:36:55.243Z,12.10
2018-01-27T04:39:23.366Z,11.77
2018-01-27T04:41:51.497Z,12.45
2018-01-27T04:44:19.631Z,13.35
2018-01-27T04:46:48.530Z,11.05
2018-01-27T04:49:16.685Z,11.05
2018-01-27T04:51:44.803Z,11.80
2018-01-27T04:54:12.935Z,11.43
2018-01-27T04:56:41.835Z,12.85
2018-01-27T04:59:09.989Z,11.10
2018-01-27T05:01:38.131Z,10.70
2018-01-27T05:04:06.256Z,10.75
2018-01-27T05:06:34.389Z,12.00
2018-01-27T05:09:02.498Z,11.07
2018-01-27T05:11:30.637Z,11.75
2018-01-27T05:13:58.761Z,12.57
2018-01-27T05:16:26.898Z,11.65
2018-01-27T05:18:55.796Z,11.43
2018-01-27T05:21:23.941Z,12.20
2018-01-27T05:23:52.055Z,12.50
2018-01-27T05:26:20.231Z,11.75
2018-01-27T05:28:48.371Z,12.50
2018-01-27T05:31:16.493Z,12.88
2018-01-27T05:33:44.615Z,11.77
2018-01-27T05:36:13.521Z,11.93
2018-01-27T05:38:42.436Z,12.35
2018-01-27T05:41:10.552Z,11.68
2018-01-27T05:43:38.694Z,12.20
2018-01-27T05:46:06.823Z,11.75
2018-01-27T05:48:35.716Z,12.52
2018-01-27T05:51:04.613Z,13.30
2018-01-27T05:53:32.745Z,13.25
2018-01-27T05:56:00.886Z,13.82
2018-01-27T05:58:29.011Z,12.20
2018-01-27T06:00:57.157Z,13.00
2018-01-27T06:03:25.289Z,12.35
2018-01-27T06:05:53.420Z,13.05
2018-01-27T06:08:22.328Z,14.10
2018-01-27T06:10:51.206Z,14.15
2018-01-27T06:13:20.111Z,14.52
2018-01-27T06:15:49.010Z,15.82
2018-01-27T06:18:17.906Z,13.90
2018-01-27T06:20:46.026Z,13.17
2018-01-27T06:23:14.230Z,14.55
2018-01-27T06:25:43.165Z,14.18
2018-01-27T06:28:11.289Z,15.25
2018-01-27T06:30:40.175Z,15.77
2018-01-27T06:33:09.080Z,15.85
2018-01-27T06:35:37.983Z,14.90
2018-01-27T06:38:06.171Z,14.98
2018-01-27T06:40:34.291Z,15.63
2018-01-27T06:43:02.410Z,18.37
2018-01-27T06:45:30.556Z,17.40
2018-01-27T06:47:59.432Z,17.67
2018-01-27T06:50:28.335Z,15.82
2018-01-27T06:52:57.222Z,17.75
2018-01-27T06:55:26.143Z,16.75
2018-01-27T06:57:54.275Z,17.90
2018-01-27T07:00:22.423Z,17.15
2018-01-27T07:02:50.551Z,18.60
2018-01-27T07:05:18.668Z,19.90
2018-01-27T07:07:46.821Z,21.83
2018-01-27T07:10:14.940Z,28.25
2018-01-27T07:12:43.830Z,33.80
2018-01-27T07:15:12.727Z,30.92
2018-01-27T07:17:41.669Z,21.60
2018-01-27T07:20:09.766Z,18.50
2018-01-27T07:22:37.894Z,18.00
2018-01-27T07:25:06.031Z,17.55
2018-01-27T07:27:34.927Z,19.52
2018-01-27T07:30:03.825Z,26.35
2018-01-27T07:32:31.962Z,20.08
2018-01-27T07:35:00.105Z,19.50
2018-01-27T07:37:28.231Z,19.10
2018-01-27T07:39:57.123Z,18.25
2018-01-27T07:42:26.022Z,19.55
2018-01-27T07:44:54.149Z,19.15
2018-01-27T07:47:22.280Z,17.00
2018-01-27T07:49:50.412Z,19.05
2018-01-27T07:52:18.558Z,17.92
2018-01-27T07:54:46.683Z,20.00
2018-01-27T07:57:14.816Z,20.85
2018-01-27T07:59:42.957Z,19.95
2018-01-27T08:02:11.119Z,18.93
2018-01-27T08:04:39.245Z,20.95
2018-01-27T08:07:07.357Z,21.27
2018-01-27T08:09:35.482Z,22.08
2018-01-27T08:12:03.603Z,22.08
2018-01-27T08:14:31.751Z,21.95
2018-01-27T08:17:00.655Z,23.27
2018-01-27T08:19:28.819Z,22.92
2018-01-27T08:21:57.751Z,23.73
2018-01-27T08:24:25.886Z,24.73
2018-01-27T08:26:54.016Z,26.73
2018-01-27T08:29:22.188Z,25.35
2018-01-27T08:31:50.278Z,26.40
2018-01-27T08:34:18.409Z,39.88
2018-01-27T08:36:46.566Z,48.07
2018-01-27T08:39:14.714Z,34.45
2018-01-27T08:41:43.614Z,28.98
2018-01-27T08:44:11.742Z,25.58
2018-01-27T08:46:39.891Z,26.58
2018-01-27T08:49:08.023Z,28.02
2018-01-27T08:51:36.954Z,26.03
2018-01-27T08:54:05.093Z,27.08
2018-01-27T08:56:33.205Z,25.85
2018-01-27T08:59:02.114Z,26.58
2018-01-27T09:01:30.263Z,26.57
2018-01-27T09:03:58.391Z,25.90
2018-01-27T09:06:26.533Z,27.07
2018-01-27T09:08:54.659Z,27.48
2018-01-27T09:11:22.806Z,25.52
2018-01-27T09:13:51.706Z,25.95
2018-01-27T09:16:19.849Z,25.55
2018-01-27T09:18:48.012Z,24.98
2018-01-27T09:21:16.146Z,35.70
2018-01-27T09:23:44.279Z,26.40
2018-01-27T09:26:13.253Z,26.80
2018-01-27T09:28:41.380Z,25.33
2018-01-27T09:31:09.521Z,25.20
2018-01-27T09:33:37.664Z,23.58
2018-01-27T09:36:05.768Z,26.40
2018-01-27T09:38:34.657Z,22.87
2018-01-27T09:41:03.610Z,25.25
2018-01-27T09:43:31.692Z,26.20
2018-01-27T09:45:59.826Z,25.60
2018-01-27T09:48:27.981Z,25.62
2018-01-27T09:50:56.114Z,23.73
2018-01-27T09:53:24.227Z,24.17
2018-01-27T09:55:52.388Z,23.55
2018-01-27T09:58:20.534Z,26.12
2018-01-27T10:00:50.167Z,24.80
2018-01-27T10:03:18.286Z,26.15
2018-01-27T10:05:46.451Z,26.47
2018-01-27T10:08:14.586Z,27.62
2018-01-27T10:10:43.478Z,26.17
2018-01-27T10:13:11.620Z,25.50
2018-01-27T10:15:39.819Z,25.10
2018-01-27T10:18:07.953Z,25.58
2018-01-27T10:20:36.068Z,22.90
2018-01-27T10:23:04.225Z,23.33
2018-01-27T10:25:33.102Z,21.87
2018-01-27T10:28:02.017Z,21.58
2018-01-27T10:30:30.202Z,20.30
2018-01-27T10:32:58.374Z,20.00
2018-01-27T10:35:27.248Z,17.67
2018-01-27T10:37:56.147Z,19.10
2018-01-27T10:40:24.286Z,17.45
2018-01-27T10:42:52.421Z,18.42
2018-01-27T10:45:20.567Z,15.98
2018-01-27T10:47:48.701Z,16.37
2018-01-27T10:50:16.862Z,17.10
2018-01-27T10:52:45.000Z,17.65
2018-01-27T10:55:13.162Z,18.08
2018-01-27T10:57:42.046Z,19.62
2018-01-27T11:00:10.183Z,19.58
2018-01-27T11:02:38.425Z,19.35
2018-01-27T11:05:06.528Z,19.20
2018-01-27T11:07:34.691Z,19.35
2018-01-27T11:10:03.572Z,20.55
2018-01-27T11:12:31.727Z,21.15
2018-01-27T11:14:59.870Z,20.37
2018-01-27T11:17:28.029Z,22.10
2018-01-27T11:19:56.909Z,22.17
2018-01-27T11:22:25.805Z,22.23
2018-01-27T11:24:54.756Z,21.87
2018-01-27T11:27:22.866Z,22.13
2018-01-27T11:29:51.762Z,22.10
2018-01-27T11:32:20.651Z,21.65
2018-01-27T11:34:49.581Z,22.67
2018-01-27T11:37:17.698Z,21.58
2018-01-27T11:39:46.612Z,24.08
2018-01-27T11:42:14.744Z,23.15
2018-01-27T11:44:42.871Z,23.67
2018-01-27T11:47:11.816Z,24.33
2018-01-27T11:49:39.957Z,24.27
2018-01-27T11:52:08.894Z,24.02
2018-01-27T11:54:37.821Z,23.08
2018-01-27T11:57:05.948Z,24.65
2018-01-27T11:59:34.845Z,25.23
2018-01-27T12:02:03.734Z,25.53
2018-01-27T12:04:32.642Z,25.62
2018-01-27T12:07:00.803Z,41.20
2018-01-27T12:09:29.705Z,43.72
2018-01-27T12:11:58.613Z,28.45
2018-01-27T12:14:26.756Z,28.80
2018-01-27T12:16:55.676Z,28.48
2018-01-27T12:19:23.808Z,27.75
2018-01-27T12:21:51.942Z,26.97
2018-01-27T12:24:20.095Z,28.05
2018-01-27T12:26:48.985Z,25.85
2018-01-27T12:29:17.118Z,28.62
2018-01-27T12:31:45.266Z,26.15
2018-01-27T12:34:14.139Z,26.27
2018-01-27T12:36:42.316Z,26.50
2018-01-27T12:39:10.442Z,26.20
2018-01-27T12:41:38.577Z,25.62
2018-01-27T12:44:06.732Z,23.33
2018-01-27T12:46:34.893Z,24.42
2018-01-27T12:49:03.235Z,24.75
2018-01-27T12:51:32.134Z,25.37
2018-01-27T12:54:00.277Z,22.67
2018-01-27T12:56:28.398Z,24.05
2018-01-27T12:58:56.548Z,22.35
2018-01-27T13:01:24.690Z,22.20
2018-01-27T13:03:52.823Z,21.90
2018-01-27T13:06:20.949Z,22.97
2018-01-27T13:08:49.842Z,23.23
2018-01-27T13:11:18.754Z,20.23
2018-01-27T13:13:46.887Z,19.65
2018-01-27T13:16:15.021Z,19.98
2018-01-27T13:18:43.143Z,19.73
2018-01-27T13:21:12.061Z,19.03
2018-01-27T13:23:40.191Z,20.52
2018-01-27T13:26:08.339Z,19.67
2018-01-27T13:28:36.472Z,18.77
2018-01-27T13:31:04.600Z,19.15
2018-01-27T13:33:32.788Z,19.60
2018-01-27T13:36:00.907Z,18.50
2018-01-27T13:38:29.058Z,16.95
2018-01-27T13:40:57.179Z,17.45
2018-01-27T13:43:26.099Z,18.37
2018-01-27T13:45:54.993Z,17.77
2018-01-27T13:48:23.874Z,18.98
2018-01-27T13:50:52.023Z,16.00
2018-01-27T13:53:20.135Z,18.48
2018-01-27T13:55:48.281Z,18.85
2018-01-27T13:58:16.409Z,18.67
2018-01-27T14:00:44.575Z,19.00
2018-01-27T14:03:12.727Z,19.15
2018-01-27T14:05:41.637Z,16.90
2018-01-27T14:08:09.752Z,17.58
2018-01-27T14:10:37.878Z,16.05
2018-01-27T14:13:06.037Z,15.60
2018-01-27T14:15:34.180Z,16.37
2018-01-27T14:18:02.350Z,17.12
2018-01-27T14:20:30.573Z,17.53
2018-01-27T14:22:58.699Z,17.62
2018-01-27T14:25:26.851Z,19.37
2018-01-27T14:27:54.995Z,19.58
2018-01-27T14:30:23.160Z,19.37
2018-01-27T14:32:51.301Z,19.45
2018-01-27T14:35:20.206Z,20.43
2018-01-27T14:37:48.348Z,19.33
2018-01-27T14:40:21.507Z,20.20
2018-01-27T14:42:49.639Z,18.48
2018-01-27T14:45:18.041Z,19.12
2018-01-27T14:47:46.194Z,18.52
2018-01-27T14:50:14.416Z,21.10
2018-01-27T14:52:42.563Z,19.30
2018-01-27T14:55:10.720Z,19.50
2018-01-27T14:57:38.838Z,20.25
2018-01-27T15:00:06.986Z,20.10
2018-01-27T15:02:35.132Z,20.45
2018-01-27T15:05:03.296Z,19.20
2018-01-27T15:07:31.501Z,21.10
2018-01-27T15:09:59.631Z,20.25
2018-01-27T15:12:28.558Z,17.42
2018-01-27T15:14:56.697Z,20.12
2018-01-27T15:17:25.615Z,22.65
2018-01-27T15:19:53.766Z,21.75
2018-01-27T15:22:22.685Z,19.42
2018-01-27T15:24:50.820Z,19.25
2018-01-27T15:27:19.726Z,19.42
2018-01-27T15:29:48.669Z,26.17
2018-01-27T15:32:16.843Z,21.27
2018-01-27T15:34:45.023Z,25.10
2018-01-27T15:37:13.168Z,19.45
2018-01-27T15:39:41.317Z,18.20
2018-01-27T15:42:09.608Z,18.42
2018-01-27T15:44:38.530Z,19.50
2018-01-27T15:47:06.675Z,19.15
2018-01-27T15:49:34.801Z,19.00
2018-01-27T15:52:02.999Z,18.02
2018-01-27T15:54:31.995Z,18.58
2018-01-27T15:57:00.136Z,19.83
2018-01-27T15:59:28.259Z,20.40
2018-01-27T16:01:56.392Z,21.65
2018-01-27T16:04:25.377Z,17.73
2018-01-27T16:06:53.530Z,19.23
2018-01-27T16:09:21.676Z,18.70
2018-01-27T16:11:49.821Z,19.27
2018-01-27T16:14:17.971Z,18.95
2018-01-27T16:16:46.146Z,19.20
2018-01-27T16:19:15.173Z,19.70
2018-01-27T16:21:44.069Z,19.10
2018-01-27T16:24:12.203Z,21.62
2018-01-27T16:26:41.160Z,20.98
2018-01-27T16:29:09.274Z,21.73
2018-01-27T16:31:38.187Z,21.00
2018-01-27T16:34:06.329Z,21.90
2018-01-27T16:36:34.451Z,23.67
2018-01-27T16:39:02.618Z,23.77
2018-01-27T16:41:30.737Z,23.38
2018-01-27T16:43:59.681Z,22.23
2018-01-27T16:46:27.826Z,24.10
2018-01-27T16:48:55.987Z,24.60
2018-01-27T16:51:24.928Z,24.53
2018-01-27T16:53:53.063Z,23.65
2018-01-27T16:56:21.201Z,24.98
2018-01-27T16:58:49.344Z,24.33
2018-01-27T17:01:17.477Z,23.10
2018-01-27T17:03:46.467Z,24.05
2018-01-27T17:06:14.619Z,24.25
2018-01-27T17:08:43.626Z,23.95
2018-01-27T17:11:12.571Z,28.98
2018-01-27T17:13:40.716Z,29.90
2018-01-27T17:16:08.911Z,28.15
2018-01-27T17:18:37.229Z,32.45
2018-01-27T17:21:05.381Z,35.20
2018-01-27T17:23:34.417Z,30.73
2018-01-27T17:26:02.561Z,26.83
2018-01-27T17:28:31.496Z,27.87
2018-01-27T17:30:59.641Z,29.75
2018-01-27T17:33:28.557Z,26.27
2018-01-27T17:35:56.715Z,28.93
2018-01-27T17:38:25.607Z,29.55
2018-01-27T17:40:54.519Z,28.52
2018-01-27T17:43:22.685Z,30.70
2018-01-27T17:45:50.818Z,31.42
2018-01-27T17:48:19.756Z,29.33
2018-01-27T17:50:47.899Z,28.90
2018-01-27T17:53:16.029Z,29.23
2018-01-27T17:55:44.187Z,27.80
2018-01-27T17:58:12.336Z,30.98
2018-01-27T18:00:40.467Z,28.07
2018-01-27T18:03:09.455Z,27.55
2018-01-27T18:05:37.566Z,27.87
2018-01-27T18:08:05.730Z,27.20
2018-01-27T18:10:34.612Z,25.88
2018-01-27T18:13:02.772Z,25.60
2018-01-27T18:15:30.880Z,26.40
2018-01-27T18:17:59.370Z,24.92
2018-01-27T18:20:27.502Z,27.02
2018-01-27T18:22:56.697Z,29.73
2018-01-27T18:25:24.841Z,27.48
2018-01-27T18:27:52.975Z,27.13
2018-01-27T18:30:21.309Z,25.48
2018-01-27T18:32:49.515Z,44.67
2018-01-27T18:35:17.693Z,34.95
2018-01-27T18:37:45.867Z,35.55
2018-01-27T18:40:15.004Z,30.08
2018-01-27T18:42:43.951Z,30.73
2018-01-27T18:45:12.061Z,31.05
2018-01-27T18:47:40.246Z,39.05
2018-01-27T18:50:08.363Z,38.10
2018-01-27T18:52:36.607Z,36.97
2018-01-27T18:55:05.513Z,36.90
2018-01-27T18:57:34.575Z,32.83
2018-01-27T19:00:03.379Z,30.35
2018-01-27T19:02:32.275Z,27.60
2018-01-27T19:05:01.184Z,36.67
2018-01-27T19:07:29.326Z,27.70
2018-01-27T19:09:58.252Z,27.70
2018-01-27T19:12:26.404Z,28.62
2018-01-27T19:14:55.326Z,29.27
2018-01-27T19:17:23.474Z,30.67
2018-01-27T19:19:52.363Z,29.45
2018-01-27T19:22:21.285Z,28.80
2018-01-27T19:24:49.414Z,27.25
2018-01-27T19:27:18.326Z,27.00
2018-01-27T19:29:46.493Z,26.35
2018-01-27T19:32:15.433Z,23.83
2018-01-27T19:34:43.582Z,29.35
2018-01-27T19:37:11.736Z,26.92
2018-01-27T19:39:40.682Z,24.63
2018-01-27T19:42:08.851Z,26.30
2018-01-27T19:44:37.037Z,26.27
2018-01-27T19:47:05.215Z,25.35
2018-01-27T19:49:33.396Z,22.92
2018-01-27T19:52:02.354Z,24.67
2018-01-27T19:54:30.650Z,24.42
2018-01-27T19:56:59.127Z,26.55
2018-01-27T19:59:27.275Z,26.92
2018-01-27T20:01:55.465Z,28.83
2018-01-27T20:04:23.641Z,27.50
2018-01-27T20:06:51.883Z,30.17
2018-01-27T20:09:20.050Z,35.17
2018-01-27T20:11:48.259Z,29.48
2018-01-27T20:14:17.103Z,25.42
2018-01-27T20:16:45.316Z,22.87
2018-01-27T20:19:13.518Z,24.48
2018-01-27T20:21:42.439Z,26.23
2018-01-27T20:24:10.618Z,24.80
2018-01-27T20:26:38.964Z,26.05
2018-01-27T20:29:07.343Z,24.40
2018-01-27T20:31:35.588Z,26.08
2018-01-27T20:34:03.770Z,27.52
2018-01-27T20:36:31.953Z,26.75
2018-01-27T20:39:00.086Z,24.40
2018-01-27T20:41:28.233Z,25.02
2018-01-27T20:43:56.409Z,23.90
2018-01-27T20:46:24.793Z,25.60
2018-01-27T20:48:52.969Z,24.27
2018-01-27T20:51:21.224Z,22.63
2018-01-27T20:53:50.215Z,23.87
2018-01-27T20:56:19.149Z,21.65
2018-01-27T20:58:47.378Z,21.40
2018-01-27T21:01:15.542Z,23.20
2018-01-27T21:03:44.555Z,23.48
2018-01-27T21:06:13.714Z,24.30
2018-01-27T21:08:41.897Z,23.75
2018-01-27T21:11:10.861Z,23.67
2018-01-27T21:13:39.081Z,21.52
2018-01-27T21:16:08.192Z,21.98
2018-01-27T21:18:36.350Z,22.85
2018-01-27T21:21:05.279Z,22.90
2018-01-27T21:23:34.383Z,27.75
2018-01-27T21:26:02.587Z,47.17
2018-01-27T21:28:32.729Z,38.67
2018-01-27T21:31:01.297Z,32.47
2018-01-27T21:33:29.440Z,26.05
2018-01-27T21:35:57.794Z,26.40
2018-01-27T21:38:25.964Z,24.98
2018-01-27T21:40:54.132Z,22.42
2018-01-27T21:43:23.089Z,27.70
2018-01-27T21:45:51.239Z,23.15
2018-01-27T21:48:19.451Z,22.40
2018-01-27T21:50:48.399Z,22.07
2018-01-27T21:53:16.817Z,23.23
2018-01-27T21:55:45.852Z,23.05
2018-01-27T21:58:13.990Z,23.60
2018-01-27T22:00:42.139Z,27.23
2018-01-27T22:03:10.298Z,23.20
2018-01-27T22:05:38.514Z,23.90
2018-01-27T22:08:07.433Z,23.08
2018-01-27T22:10:35.599Z,22.52
2018-01-27T22:13:03.742Z,22.77
2018-01-27T22:15:31.873Z,21.75
2018-01-27T22:18:00.092Z,22.85
2018-01-27T22:20:28.243Z,23.20
2018-01-27T22:22:56.552Z,21.70
2018-01-27T22:25:24.705Z,23.52
2018-01-27T22:27:52.856Z,21.10
2018-01-27T22:30:20.996Z,23.05
2018-01-27T22:32:49.167Z,23.50
2018-01-27T22:35:17.341Z,23.13
2018-01-27T22:37:46.232Z,23.85
2018-01-27T22:40:14.351Z,22.67
2018-01-27T22:42:42.597Z,23.75
2018-01-27T22:45:10.743Z,22.25
2018-01-27T22:47:39.641Z,23.70
2018-01-27T22:50:07.838Z,22.43
2018-01-27T22:52:36.107Z,24.40
2018-01-27T22:55:05.084Z,26.35
2018-01-27T22:57:33.226Z,25.90
2018-01-27T23:00:01.379Z,25.23
2018-01-27T23:02:29.516Z,26.80
2018-01-27T23:04:57.833Z,26.70
2018-01-27T23:07:26.014Z,24.65
2018-01-27T23:09:54.163Z,24.80
2018-01-27T23:12:22.303Z,26.12
2018-01-27T23:14:50.525Z,27.30
2018-01-27T23:17:18.667Z,24.15
2018-01-27T23:19:46.810Z,22.90
2018-01-27T23:22:15.400Z,24.35
2018-01-27T23:24:44.297Z,24.30
2018-01-27T23:27:12.414Z,25.35
2018-01-27T23:29:40.571Z,24.25
2018-01-27T23:32:08.825Z,25.02
2018-01-27T23:34:38.008Z,23.70
2018-01-27T23:37:06.135Z,24.65
2018-01-27T23:39:34.297Z,23.55
2018-01-27T23:42:02.458Z,24.45
2018-01-27T23:44:30.657Z,26.80
2018-01-27T23:46:58.798Z,25.08
2018-01-27T23:49:26.929Z,22.17
2018-01-27T23:51:55.076Z,30.13
2018-01-27T23:54:23.526Z,23.70
2018-01-27T23:56:51.751Z,20.45
2018-01-27T23:59:20.640Z,22.83
